createdAt,value
2022-11-05T00:00:36.426Z,10.66
2022-11-05T00:03:03.500Z,10.53
2022-11-05T00:05:31.228Z,9.33
2022-11-05T00:08:02.422Z,9.48
2022-11-05T00:10:31.607Z,9.28
2022-11-05T00:13:00.232Z,9.05
2022-11-05T00:15:26.841Z,9.55
2022-11-05T00:17:53.397Z,9.76
2022-11-05T00:20:20.046Z,9.67
2022-11-05T00:22:46.716Z,9.51
2022-11-05T00:25:13.903Z,9.57
2022-11-05T00:27:40.964Z,9.89
2022-11-05T00:30:08.050Z,9.96
2022-11-05T00:32:34.747Z,10.19
2022-11-05T00:35:01.344Z,10.26
2022-11-05T00:37:28.355Z,10.21
2022-11-05T00:39:55.040Z,10.24
2022-11-05T00:42:21.629Z,10.00
2022-11-05T00:44:48.242Z,10.28
2022-11-05T00:47:14.806Z,10.63
2022-11-05T00:49:41.440Z,10.77
2022-11-05T00:52:08.026Z,10.71
2022-11-05T00:54:34.621Z,10.82
2022-11-05T00:57:04.640Z,10.54
2022-11-05T00:59:31.560Z,10.14
2022-11-05T01:01:58.300Z,9.92
2022-11-05T01:04:25.303Z,9.89
2022-11-05T01:06:51.878Z,10.02
2022-11-05T01:09:18.479Z,10.11
2022-11-05T01:11:45.065Z,10.15
2022-11-05T01:14:14.588Z,10.29
2022-11-05T01:16:41.636Z,10.55
2022-11-05T01:19:10.693Z,10.35
2022-11-05T01:21:38.274Z,10.23
2022-11-05T01:24:05.133Z,10.59
2022-11-05T01:26:31.711Z,10.84
2022-11-05T01:29:01.834Z,10.59
2022-11-05T01:31:28.510Z,10.49
2022-11-05T01:33:55.148Z,10.27
2022-11-05T01:36:21.886Z,10.35
2022-11-05T01:38:48.472Z,10.09
2022-11-05T01:41:15.128Z,10.49
2022-11-05T01:43:55.193Z,10.10
2022-11-05T01:46:25.668Z,9.77
2022-11-05T01:49:01.755Z,9.99
2022-11-05T01:51:29.878Z,10.40
2022-11-05T01:54:06.547Z,10.59
2022-11-05T01:56:42.645Z,10.81
2022-11-05T01:59:22.704Z,10.87
2022-11-05T02:01:50.497Z,10.70
2022-11-05T02:04:31.797Z,10.71
2022-11-05T02:06:59.848Z,10.76
2022-11-05T02:09:56.166Z,10.43
2022-11-05T02:12:24.309Z,10.48
2022-11-05T02:14:50.917Z,10.42
2022-11-05T02:17:26.442Z,10.67
2022-11-05T02:20:04.979Z,10.75
2022-11-05T02:22:37.491Z,10.74
2022-11-05T02:25:35.263Z,10.92
2022-11-05T02:28:20.351Z,10.75
2022-11-05T02:31:22.930Z,10.93
2022-11-05T02:34:23.961Z,10.00
2022-11-05T02:37:10.234Z,10.04
2022-11-05T02:39:56.138Z,9.99
2022-11-05T02:42:42.242Z,9.66
2022-11-05T02:45:20.977Z,9.87
2022-11-05T02:47:56.311Z,9.54
2022-11-05T02:50:49.040Z,9.53
2022-11-05T02:53:34.156Z,9.44
2022-11-05T02:56:09.896Z,9.54
2022-11-05T02:58:36.522Z,9.27
2022-11-05T03:01:03.333Z,9.29
2022-11-05T03:03:38.014Z,9.63
2022-11-05T03:06:13.545Z,9.43
2022-11-05T03:09:17.813Z,9.91
2022-11-05T03:12:09.258Z,9.38
2022-11-05T03:14:40.134Z,9.33
2022-11-05T03:17:09.368Z,9.42
2022-11-05T03:19:58.764Z,9.00
2022-11-05T03:22:40.664Z,9.03
2022-11-05T03:25:15.855Z,8.90
2022-11-05T03:27:48.932Z,9.38
2022-11-05T03:30:18.828Z,9.62
2022-11-05T03:33:00.269Z,9.62
2022-11-05T03:35:36.080Z,10.04
2022-11-05T03:38:13.388Z,9.98
2022-11-05T03:40:45.696Z,9.39
2022-11-05T03:43:14.530Z,9.71
2022-11-05T03:45:49.549Z,9.38
2022-11-05T03:48:19.425Z,9.18
2022-11-05T03:50:59.498Z,9.84
2022-11-05T03:53:31.424Z,10.00
2022-11-05T03:56:10.552Z,10.32
2022-11-05T03:58:43.685Z,10.14
2022-11-05T04:01:11.744Z,10.47
2022-11-05T04:03:38.791Z,10.41
2022-11-05T04:06:08.346Z,10.73
2022-11-05T04:08:35.019Z,10.85
2022-11-05T04:11:01.644Z,10.61
2022-11-05T04:13:48.270Z,10.49
2022-11-05T04:16:34.853Z,10.78
2022-11-05T04:19:01.833Z,10.44
2022-11-05T04:21:28.453Z,10.81
2022-11-05T04:23:55.903Z,10.97
2022-11-05T04:26:22.621Z,11.05
2022-11-05T04:28:50.471Z,11.18
2022-11-05T04:31:17.097Z,11.10
2022-11-05T04:33:43.722Z,10.82
2022-11-05T04:36:10.336Z,10.99
2022-11-05T04:38:36.932Z,11.06
2022-11-05T04:41:16.400Z,11.28
2022-11-05T04:43:43.811Z,11.31
2022-11-05T04:46:10.620Z,11.31
2022-11-05T04:48:38.348Z,11.27
2022-11-05T04:51:05.672Z,11.34
2022-11-05T04:53:32.353Z,11.22
2022-11-05T04:56:17.966Z,11.31
2022-11-05T04:58:44.808Z,11.42
2022-11-05T05:01:14.245Z,11.33
2022-11-05T05:03:41.524Z,11.39
2022-11-05T05:06:08.623Z,11.49
2022-11-05T05:08:35.529Z,11.21
2022-11-05T05:11:08.548Z,11.18
2022-11-05T05:13:35.240Z,11.20
2022-11-05T05:16:06.437Z,11.15
2022-11-05T05:18:34.263Z,11.28
2022-11-05T05:21:01.287Z,10.83
2022-11-05T05:23:27.917Z,10.78
2022-11-05T05:25:54.548Z,10.97
2022-11-05T05:28:21.152Z,11.12
2022-11-05T05:30:47.759Z,11.28
2022-11-05T05:33:14.605Z,11.03
2022-11-05T05:35:41.279Z,10.96
2022-11-05T05:38:07.873Z,10.45
2022-11-05T05:40:34.591Z,10.03
2022-11-05T05:43:01.279Z,9.95
2022-11-05T05:45:27.973Z,10.08
2022-11-05T05:47:57.597Z,9.89
2022-11-05T05:50:24.261Z,9.93
2022-11-05T05:52:50.846Z,10.07
2022-11-05T05:55:17.445Z,10.34
2022-11-05T05:57:44.100Z,10.24
2022-11-05T06:00:11.360Z,9.75
2022-11-05T06:02:38.182Z,10.19
2022-11-05T06:05:05.428Z,10.16
2022-11-05T06:07:37.064Z,9.99
2022-11-05T06:10:05.157Z,9.49
2022-11-05T06:12:31.955Z,9.65
2022-11-05T06:14:58.541Z,10.14
2022-11-05T06:17:25.194Z,10.18
2022-11-05T06:19:51.787Z,10.25
2022-11-05T06:22:18.386Z,10.56
2022-11-05T06:24:44.983Z,9.94
2022-11-05T06:27:11.635Z,9.10
2022-11-05T06:29:38.208Z,9.66
2022-11-05T06:32:04.904Z,9.79
2022-11-05T06:34:31.498Z,9.34
2022-11-05T06:36:58.108Z,9.38
2022-11-05T06:39:24.944Z,9.70
2022-11-05T06:42:16.743Z,9.63
2022-11-05T06:44:38.087Z,9.05
2022-11-05T06:47:04.659Z,8.56
2022-11-05T06:49:31.269Z,9.30
2022-11-05T06:51:57.956Z,9.52
2022-11-05T06:54:24.537Z,8.65
2022-11-05T06:56:51.127Z,9.37
2022-11-05T06:59:19.770Z,9.23
2022-11-05T07:01:46.455Z,9.00
2022-11-05T07:04:13.169Z,8.91
2022-11-05T07:06:39.760Z,8.78
2022-11-05T07:09:06.404Z,9.06
2022-11-05T07:11:33.068Z,8.94
2022-11-05T07:13:59.646Z,9.41
2022-11-05T07:16:26.241Z,9.45
2022-11-05T07:18:52.843Z,9.81
2022-11-05T07:21:19.530Z,9.63
2022-11-05T07:23:46.218Z,9.72
2022-11-05T07:26:12.810Z,9.71
2022-11-05T07:28:39.431Z,10.03
2022-11-05T07:31:06.029Z,10.25
2022-11-05T07:33:36.462Z,10.30
2022-11-05T07:36:03.656Z,10.15
2022-11-05T07:38:30.790Z,9.63
2022-11-05T07:40:59.736Z,9.85
2022-11-05T07:43:26.299Z,10.07
2022-11-05T07:45:52.912Z,10.29
2022-11-05T07:48:19.515Z,10.34
2022-11-05T07:50:46.122Z,10.26
2022-11-05T07:53:14.768Z,10.59
2022-11-05T07:55:42.717Z,10.45
2022-11-05T07:58:11.066Z,10.45
2022-11-05T08:00:38.092Z,10.93
2022-11-05T08:03:09.086Z,11.17
2022-11-05T08:05:39.209Z,10.94
2022-11-05T08:08:08.655Z,10.88
2022-11-05T08:10:36.914Z,10.86
2022-11-05T08:13:04.924Z,10.74
2022-11-05T08:15:31.653Z,10.78
2022-11-05T08:18:03.581Z,10.88
2022-11-05T08:20:31.702Z,11.20
2022-11-05T08:22:58.394Z,10.54
2022-11-05T08:25:25.570Z,10.89
2022-11-05T08:28:04.370Z,11.12
2022-11-05T08:30:32.376Z,10.79
2022-11-05T08:33:02.658Z,11.13
2022-11-05T08:35:29.633Z,10.92
2022-11-05T08:38:01.755Z,11.07
2022-11-05T08:40:31.098Z,11.35
2022-11-05T08:42:59.123Z,10.74
2022-11-05T08:45:27.038Z,11.05
2022-11-05T08:48:04.166Z,11.16
2022-11-05T08:50:31.644Z,10.93
2022-11-05T08:52:58.818Z,10.88
2022-11-05T08:55:26.147Z,11.03
2022-11-05T08:58:00.075Z,10.44
2022-11-05T09:00:29.402Z,10.67
2022-11-05T09:02:59.586Z,11.47
2022-11-05T09:05:26.548Z,11.16
2022-11-05T09:07:57.838Z,11.83
2022-11-05T09:10:27.332Z,11.80
2022-11-05T09:12:53.948Z,12.01
2022-11-05T09:15:20.567Z,12.32
2022-11-05T09:17:47.226Z,12.02
2022-11-05T09:20:15.271Z,11.77
2022-11-05T09:22:43.593Z,12.19
2022-11-05T09:25:10.423Z,11.58
2022-11-05T09:27:37.097Z,11.60
2022-11-05T09:30:04.907Z,11.44
2022-11-05T09:32:32.310Z,11.59
2022-11-05T09:34:59.286Z,11.47
2022-11-05T09:37:26.152Z,11.98
2022-11-05T09:39:53.000Z,12.40
2022-11-05T09:42:24.409Z,12.70
2022-11-05T09:44:57.778Z,12.83
2022-11-05T09:47:49.291Z,12.72
2022-11-05T09:50:23.026Z,12.51
2022-11-05T09:52:50.056Z,12.51
2022-11-05T09:55:28.158Z,12.93
2022-11-05T09:57:59.883Z,11.96
2022-11-05T10:00:28.637Z,11.76
2022-11-05T10:03:00.973Z,11.90
2022-11-05T10:05:28.859Z,11.74
2022-11-05T10:08:05.328Z,12.13
2022-11-05T10:10:40.353Z,11.92
2022-11-05T10:13:28.009Z,11.92
2022-11-05T10:16:04.315Z,12.15
2022-11-05T10:18:41.174Z,12.35
2022-11-05T10:21:37.617Z,12.66
2022-11-05T10:24:15.860Z,12.81
2022-11-05T10:26:46.194Z,12.62
2022-11-05T10:29:22.759Z,12.56
2022-11-05T10:31:52.231Z,12.84
2022-11-05T10:34:19.399Z,12.84
2022-11-05T10:36:46.056Z,12.93
2022-11-05T10:39:18.373Z,12.91
2022-11-05T10:42:20.465Z,12.79
2022-11-05T10:44:57.598Z,12.16
2022-11-05T10:47:52.298Z,12.53
2022-11-05T10:50:24.252Z,12.13
2022-11-05T10:53:13.841Z,11.90
2022-11-05T10:55:48.248Z,11.63
2022-11-05T10:58:17.850Z,11.65
2022-11-05T11:00:51.407Z,12.30
2022-11-05T11:03:49.934Z,12.38
2022-11-05T11:06:30.539Z,12.72
2022-11-05T11:09:02.241Z,12.77
2022-11-05T11:11:38.825Z,12.90
2022-11-05T11:14:19.606Z,13.10
2022-11-05T11:16:48.874Z,12.99
2022-11-05T11:19:37.297Z,13.23
2022-11-05T11:22:03.880Z,13.52
2022-11-05T11:24:38.132Z,13.62
2022-11-05T11:27:10.732Z,13.64
2022-11-05T11:29:48.043Z,12.74
2022-11-05T11:32:19.267Z,12.52
2022-11-05T11:34:51.353Z,12.55
2022-11-05T11:37:26.081Z,12.96
2022-11-05T11:40:17.804Z,13.25
2022-11-05T11:42:49.042Z,13.46
2022-11-05T11:45:27.176Z,13.28
2022-11-05T11:47:56.679Z,12.94
2022-11-05T11:50:42.156Z,12.93
2022-11-05T11:53:20.998Z,12.56
2022-11-05T11:55:58.626Z,12.99
2022-11-05T11:58:36.475Z,13.37
2022-11-05T12:01:24.575Z,13.36
2022-11-05T12:04:05.220Z,13.14
2022-11-05T12:06:51.923Z,13.14
2022-11-05T12:09:34.963Z,13.31
2022-11-05T12:12:16.757Z,13.66
2022-11-05T12:15:02.086Z,14.08
2022-11-05T12:17:57.130Z,13.98
2022-11-05T12:20:38.475Z,13.85
2022-11-05T12:23:26.531Z,13.80
2022-11-05T12:26:14.844Z,12.52
2022-11-05T12:29:22.813Z,13.26
2022-11-05T12:32:30.507Z,13.09
2022-11-05T12:35:00.141Z,12.44
2022-11-05T12:37:41.494Z,11.06
2022-11-05T12:40:28.182Z,10.78
2022-11-05T12:43:13.561Z,10.30
2022-11-05T12:46:17.822Z,10.90
2022-11-05T12:49:08.691Z,10.96
2022-11-05T12:52:01.022Z,10.96
2022-11-05T12:54:36.680Z,11.43
2022-11-05T12:57:05.268Z,11.37
2022-11-05T12:59:39.944Z,11.75
2022-11-05T13:02:23.324Z,12.40
2022-11-05T13:04:57.806Z,11.79
2022-11-05T13:07:35.205Z,11.35
2022-11-05T13:10:38.972Z,11.00
2022-11-05T13:13:17.866Z,10.59
2022-11-05T13:15:59.271Z,10.27
2022-11-05T13:18:39.861Z,10.02
2022-11-05T13:21:09.915Z,9.81
2022-11-05T13:23:53.979Z,9.73
2022-11-05T13:26:42.191Z,9.59
2022-11-05T13:29:26.646Z,9.46
2022-11-05T13:32:20.225Z,9.53
2022-11-05T13:34:47.603Z,9.57
2022-11-05T13:37:23.204Z,10.08
2022-11-05T13:39:53.574Z,10.21
2022-11-05T13:42:59.714Z,10.07
2022-11-05T13:46:08.345Z,10.34
2022-11-05T13:49:06.322Z,9.99
2022-11-05T13:51:41.777Z,10.47
2022-11-05T13:54:31.340Z,10.04
2022-11-05T13:57:00.907Z,9.81
2022-11-05T13:59:39.583Z,9.48
2022-11-05T14:02:34.890Z,9.68
2022-11-05T14:05:03.347Z,9.50
2022-11-05T14:07:37.910Z,9.58
2022-11-05T14:10:07.287Z,9.49
2022-11-05T14:12:39.408Z,9.61
2022-11-05T14:15:27.668Z,9.53
2022-11-05T14:18:37.227Z,9.30
2022-11-05T14:21:06.650Z,9.36
2022-11-05T14:23:49.015Z,9.46
2022-11-05T14:26:22.602Z,9.38
2022-11-05T14:29:04.230Z,9.46
2022-11-05T14:32:07.050Z,9.70
2022-11-05T14:34:48.814Z,9.59
2022-11-05T14:37:50.702Z,9.85
2022-11-05T14:40:39.537Z,9.96
2022-11-05T14:43:22.500Z,10.53
2022-11-05T14:46:05.374Z,11.24
2022-11-05T14:48:40.210Z,10.57
2022-11-05T14:51:28.445Z,10.80
2022-11-05T14:54:27.956Z,10.96
2022-11-05T14:56:58.299Z,10.84
2022-11-05T14:59:24.860Z,10.88
2022-11-05T15:01:59.159Z,10.33
2022-11-05T15:04:27.880Z,10.01
2022-11-05T15:07:03.367Z,10.30
2022-11-05T15:09:54.383Z,9.78
2022-11-05T15:12:35.924Z,9.32
2022-11-05T15:15:22.015Z,9.85
2022-11-05T15:17:57.761Z,9.74
2022-11-05T15:20:41.518Z,9.79
2022-11-05T15:23:14.700Z,9.65
2022-11-05T15:26:03.508Z,9.19
2022-11-05T15:28:44.632Z,9.37
2022-11-05T15:31:13.987Z,9.51
2022-11-05T15:33:42.508Z,9.16
2022-11-05T15:36:15.590Z,9.59
2022-11-05T15:38:56.636Z,9.38
2022-11-05T15:41:31.782Z,9.59
2022-11-05T15:43:58.364Z,9.11
2022-11-05T15:46:27.346Z,8.64
2022-11-05T15:48:58.805Z,8.39
2022-11-05T15:51:26.705Z,8.37
2022-11-05T15:54:24.018Z,8.24
2022-11-05T15:56:46.679Z,8.07
2022-11-05T15:59:16.780Z,8.02
2022-11-05T16:01:53.970Z,7.87
2022-11-05T16:04:31.023Z,7.76
2022-11-05T16:07:06.581Z,7.75
2022-11-05T16:09:38.369Z,7.87
2022-11-05T16:12:25.427Z,7.81
2022-11-05T16:15:09.064Z,8.69
2022-11-05T16:17:44.724Z,7.87
2022-11-05T16:20:21.434Z,7.88
2022-11-05T16:22:53.912Z,8.05
2022-11-05T16:25:39.794Z,7.80
2022-11-05T16:28:27.372Z,7.93
2022-11-05T16:31:03.842Z,7.72
2022-11-05T16:33:44.135Z,7.72
2022-11-05T16:36:11.847Z,7.98
2022-11-05T16:38:38.573Z,8.19
2022-11-05T16:41:05.406Z,7.69
2022-11-05T16:43:33.020Z,8.06
2022-11-05T16:46:01.070Z,7.72
2022-11-05T16:48:28.224Z,7.46
2022-11-05T16:50:54.908Z,7.22
2022-11-05T16:53:21.488Z,7.35
2022-11-05T16:55:48.605Z,7.37
2022-11-05T16:58:25.456Z,7.14
2022-11-05T17:00:58.896Z,7.14
2022-11-05T17:03:25.559Z,7.11
2022-11-05T17:05:52.166Z,7.09
2022-11-05T17:08:18.834Z,7.06
2022-11-05T17:10:45.750Z,6.96
2022-11-05T17:13:15.554Z,6.99
2022-11-05T17:15:44.629Z,7.04
2022-11-05T17:18:17.959Z,7.07
2022-11-05T17:20:51.482Z,7.23
2022-11-05T17:23:20.331Z,7.08
2022-11-05T17:25:53.493Z,7.17
2022-11-05T17:28:21.255Z,6.99
2022-11-05T17:30:52.376Z,7.04
2022-11-05T17:33:21.477Z,7.11
2022-11-05T17:35:48.446Z,7.27
2022-11-05T17:38:15.733Z,6.91
2022-11-05T17:40:42.681Z,6.81
2022-11-05T17:43:09.649Z,7.14
2022-11-05T17:45:50.713Z,6.92
2022-11-05T17:48:19.058Z,7.09
2022-11-05T17:50:48.633Z,7.04
2022-11-05T17:53:18.001Z,7.01
2022-11-05T17:55:46.165Z,7.13
2022-11-05T17:58:13.064Z,7.18
2022-11-05T18:00:41.563Z,7.07
2022-11-05T18:03:10.167Z,7.21
2022-11-05T18:05:37.934Z,7.17
2022-11-05T18:08:05.015Z,7.17
2022-11-05T18:10:32.787Z,7.31
2022-11-05T18:12:59.382Z,7.23
2022-11-05T18:15:25.996Z,7.39
2022-11-05T18:17:52.714Z,7.48
2022-11-05T18:20:19.773Z,7.37
2022-11-05T18:22:50.041Z,7.34
2022-11-05T18:25:17.650Z,7.47
2022-11-05T18:27:44.891Z,7.42
2022-11-05T18:30:12.396Z,7.20
2022-11-05T18:32:38.971Z,7.07
2022-11-05T18:35:05.752Z,7.13
2022-11-05T18:37:33.686Z,6.99
2022-11-05T18:40:00.351Z,6.92
2022-11-05T18:42:26.952Z,7.07
2022-11-05T18:44:53.576Z,7.05
2022-11-05T18:47:20.212Z,7.24
2022-11-05T18:49:46.857Z,6.95
2022-11-05T18:52:13.474Z,7.11
2022-11-05T18:54:40.129Z,7.05
2022-11-05T18:57:07.279Z,6.82
2022-11-05T18:59:39.057Z,6.78
2022-11-05T19:02:08.309Z,6.90
2022-11-05T19:04:36.548Z,6.84
2022-11-05T19:07:05.067Z,6.94
2022-11-05T19:09:37.149Z,6.95
2022-11-05T19:12:06.345Z,7.02
2022-11-05T19:14:33.217Z,6.95
2022-11-05T19:17:01.010Z,7.43
2022-11-05T19:19:28.447Z,7.16
2022-11-05T19:21:55.117Z,7.36
2022-11-05T19:24:21.711Z,7.13
2022-11-05T19:26:48.305Z,6.91
2022-11-05T19:29:14.967Z,7.00
2022-11-05T19:31:41.582Z,7.05
2022-11-05T19:34:08.282Z,7.24
2022-11-05T19:36:35.159Z,7.01
2022-11-05T19:39:06.641Z,6.78
2022-11-05T19:41:33.498Z,6.66
2022-11-05T19:44:00.411Z,6.75
2022-11-05T19:46:28.482Z,6.69
2022-11-05T19:48:55.236Z,6.82
2022-11-05T19:51:24.843Z,7.15
2022-11-05T19:53:52.985Z,7.39
2022-11-05T19:56:25.624Z,7.00
2022-11-05T19:58:53.496Z,6.70
2022-11-05T20:01:21.905Z,6.77
2022-11-05T20:03:49.078Z,6.62
2022-11-05T20:06:19.712Z,6.71
2022-11-05T20:09:15.389Z,6.87
2022-11-05T20:11:36.057Z,7.18
2022-11-05T20:14:03.227Z,7.06
2022-11-05T20:16:32.883Z,6.96
2022-11-05T20:18:59.520Z,7.18
2022-11-05T20:21:26.116Z,6.85
2022-11-05T20:23:55.845Z,6.87
2022-11-05T20:26:22.783Z,7.05
2022-11-05T20:28:49.462Z,6.99
2022-11-05T20:31:17.981Z,7.00
2022-11-05T20:33:46.062Z,6.96
2022-11-05T20:36:17.554Z,7.02
2022-11-05T20:38:49.109Z,7.25
2022-11-05T20:41:17.190Z,7.28
2022-11-05T20:43:44.170Z,7.50
2022-11-05T20:46:15.764Z,7.07
2022-11-05T20:48:43.623Z,6.85
2022-11-05T20:51:13.240Z,7.03
2022-11-05T20:53:40.173Z,6.64
2022-11-05T20:56:08.046Z,7.23
2022-11-05T20:58:36.465Z,7.81
2022-11-05T21:01:04.775Z,8.22
2022-11-05T21:03:31.560Z,8.60
2022-11-05T21:05:58.245Z,8.47
2022-11-05T21:08:25.284Z,8.70
2022-11-05T21:10:51.871Z,8.94
2022-11-05T21:13:18.482Z,8.83
2022-11-05T21:15:54.075Z,8.97
2022-11-05T21:18:24.213Z,8.95
2022-11-05T21:20:51.055Z,8.58
2022-11-05T21:23:18.351Z,8.50
2022-11-05T21:25:45.225Z,8.68
2022-11-05T21:28:14.064Z,8.28
2022-11-05T21:30:44.445Z,8.41
2022-11-05T21:33:12.858Z,8.18
2022-11-05T21:35:47.218Z,7.88
2022-11-05T21:38:16.599Z,6.87
2022-11-05T21:40:43.957Z,7.23
2022-11-05T21:43:11.039Z,6.83
2022-11-05T21:45:38.931Z,7.46
2022-11-05T21:48:06.408Z,6.79
2022-11-05T21:50:33.161Z,6.19
2022-11-05T21:52:59.935Z,6.41
2022-11-05T21:55:26.543Z,6.28
2022-11-05T21:57:53.198Z,6.61
2022-11-05T22:00:19.912Z,6.93
2022-11-05T22:02:46.623Z,7.42
2022-11-05T22:05:13.411Z,6.49
2022-11-05T22:07:40.148Z,6.14
2022-11-05T22:10:14.873Z,6.02
2022-11-05T22:12:43.028Z,6.17
2022-11-05T22:15:10.017Z,6.19
2022-11-05T22:17:36.629Z,6.19
2022-11-05T22:20:04.495Z,6.57
2022-11-05T22:22:31.150Z,6.39
2022-11-05T22:24:57.713Z,6.33
2022-11-05T22:27:24.321Z,6.53
2022-11-05T22:29:50.913Z,6.19
2022-11-05T22:32:17.781Z,6.08
2022-11-05T22:34:44.360Z,6.33
2022-11-05T22:37:12.530Z,6.45
2022-11-05T22:39:39.869Z,6.92
2022-11-05T22:42:08.752Z,6.48
2022-11-05T22:44:36.765Z,6.73
2022-11-05T22:47:03.542Z,6.70
2022-11-05T22:49:30.152Z,6.55
2022-11-05T22:51:56.796Z,6.43
2022-11-05T22:54:23.448Z,6.76
2022-11-05T22:56:50.164Z,7.48
2022-11-05T22:59:16.878Z,7.69
2022-11-05T23:01:46.041Z,7.48
2022-11-05T23:04:13.919Z,6.44
2022-11-05T23:06:41.116Z,6.15
2022-11-05T23:09:14.569Z,5.96
2022-11-05T23:11:43.739Z,5.54
2022-11-05T23:14:12.944Z,5.85
2022-11-05T23:16:40.977Z,6.17
2022-11-05T23:19:08.801Z,6.05
2022-11-05T23:21:35.383Z,5.80
2022-11-05T23:24:02.032Z,5.53
2022-11-05T23:26:28.653Z,5.48
2022-11-05T23:28:55.366Z,5.37
2022-11-05T23:31:21.945Z,5.47
2022-11-05T23:33:49.475Z,5.60
2022-11-05T23:36:16.071Z,5.90
2022-11-05T23:38:42.701Z,5.54
2022-11-05T23:41:09.325Z,5.52
2022-11-05T23:43:35.932Z,5.40
2022-11-05T23:46:02.548Z,5.57
2022-11-05T23:48:31.722Z,5.56
2022-11-05T23:51:07.327Z,5.84
2022-11-05T23:53:36.416Z,5.99
2022-11-05T23:56:12.743Z,5.99
2022-11-05T23:58:41.151Z,6.21
